• Join FlightAware (Why Join?)
  • Login
  • US Flag 
06:56AM EDT


 

Airport Tracker/Info


-or-


 

Live Flight TrackerFlight Track Log ✈ CFH21 ✈ 13-Jun-2013 ✈ YPTN / KTR - YPDN / DRW

Flight Track Log - Related Links

Times and Time Zones

All times are in EDT time to prevent confusion due to time zone crossing. See the CFH21 flight status page for this flight to view local times or setup timezone preferences in your user account.

Time Position Orientation Groundspeed Altitude Reporting Facility
EDT Latitude Longitude Course Direction KTS MPH feet Rate Location/Type
06:34AM -14.5321 132.3849 135° Southeast 123 142 1,300  Level Aus ATC (RADAR)
06:34AM -14.5378 132.3908 135° Southeast 113 130 2,100 2,280 Climbing Aus ATC (RADAR)
06:35AM -14.5494 132.4055 129° Southeast 110 127 3,200 1,860 Climbing Aus ATC (RADAR)
06:36AM -14.5602 132.3789 247° West 180 207 5,100 1,920 Climbing Aus ATC (RADAR)
06:36AM -14.5491 132.3731 333° Northwest 178 205 5,600 1,800 Climbing Aus ATC (RADAR)
06:37AM -14.5213 132.3635 342° North 178 205 6,600 1,860 Climbing Aus ATC (RADAR)
06:38AM -14.4786 132.3450 337° Northwest 180 207 8,400 1,740 Climbing Aus ATC (RADAR)
06:38AM -14.4572 132.3328 331° Northwest 177 204 9,100 1,380 Climbing Aus ATC (RADAR)
06:39AM -14.4140 132.3077 331° Northwest 195 224 10,400 1,500 Climbing Aus ATC (RADAR)
06:40AM -14.3763 132.2862 331° Northwest 183 211 11,700 1,440 Climbing Aus ATC (RADAR)
06:41AM -14.3313 132.2604 331° Northwest 183 211 13,100 1,500 Climbing Aus ATC (RADAR)
06:41AM -14.3203 132.2539 330° Northwest 180 207 13,600 1,560 Climbing Aus ATC (RADAR)
06:42AM -14.2948 132.2388 330° Northwest 178 205 14,400 1,320 Climbing Aus ATC (RADAR)
06:43AM -14.2566 132.2152 329° Northwest 170 196 15,600 1,200 Climbing Aus ATC (RADAR)
06:43AM -14.2231 132.1963 331° Northwest 180 207 16,400 1,080 Climbing Aus ATC (RADAR)
06:44AM -14.1835 132.1721 329° Northwest 177 204 17,400 960 Climbing Aus ATC (RADAR)
06:45AM -14.1575 132.1576 332° Northwest 178 205 17,900 900 Climbing Aus ATC (RADAR)
06:46AM -14.1019 132.1248 330° Northwest 184 212 19,100 960 Climbing Aus ATC (RADAR)
06:46AM -14.0906 132.1181 330° Northwest 184 212 19,400 960 Climbing Aus ATC (RADAR)
06:47AM -14.0646 132.1028 330° Northwest 183 211 19,900 240 Climbing Aus ATC (RADAR)
06:48AM -13.9997 132.0658 331° Northwest 218 251 19,900  Level Aus ATC (RADAR)
06:49AM -13.9673 132.0459 329° Northwest 227 261 19,900  Level Aus ATC (RADAR)
06:50AM -13.9238 132.0193 329° Northwest 235 270 19,900  Level Aus ATC (RADAR)
06:50AM -13.8894 131.9997 331° Northwest 236 272 19,900  Level Aus ATC (RADAR)
06:51AM -13.8255 131.9621 330° Northwest 238 274 19,900  Level Aus ATC (RADAR)
06:52AM -13.8059 131.9507 331° Northwest 237 273 19,900  Level Aus ATC (RADAR)
06:52AM -13.7762 131.9337 331° Northwest 239 275 19,900  Level Aus ATC (RADAR)
06:53AM -13.7164 131.8985 330° Northwest 239 275 19,900  Level Aus ATC (RADAR)
06:54AM -13.6820 131.8778 330° Northwest 239 275 19,900  Level Aus ATC (RADAR)
06:55AM -13.6325 131.8491 331° Northwest 236 272 19,900  Level Aus ATC (RADAR)
06:55AM -13.5979 131.8277 329° Northwest 242 278 19,900  Level Aus ATC (RADAR)
06:56AM -13.5181 131.7809 330° Northwest 241 277 19,900  Level Aus ATC (RADAR)
06:57AM -13.4738 131.7538 329° Northwest 241 277 19,900  Level Aus ATC (RADAR)
06:58AM -13.4183 131.7226 331° Northwest 240 276 19,900  Level Aus ATC (RADAR)
06:58AM -13.4033 131.7136 330° Northwest 240 276 19,900  Level Aus ATC (RADAR)
06:59AM -13.3737 131.6960 330° Northwest 240 276 19,900  Level Aus ATC (RADAR)
07:00AM -13.3138 131.6608 330° Northwest 239 275 19,900  Level Aus ATC (RADAR)
07:00AM -13.2791 131.6395 329° Northwest 243 280 19,900  Level Aus ATC (RADAR)
07:01AM -13.2243 131.6078 331° Northwest 241 277 19,900  Level Aus ATC (RADAR)
07:02AM -13.2088 131.5994 332° Northwest 243 280 19,900 -120 Level Aus ATC (RADAR)
07:02AM -13.1740 131.5783 329° Northwest 242 278 19,800 -960 Descending Aus ATC (RADAR)
07:03AM -13.1188 131.5463 331° Northwest 266 306 18,600 -1,440 Descending Aus ATC (RADAR)
07:03AM -13.1018 131.5363 330° Northwest 270 311 18,300 -1,320 Descending Aus ATC (RADAR)
07:04AM -13.0615 131.5130 331° Northwest 272 313 17,500 -1,380 Descending Aus ATC (RADAR)
07:05AM -13.0060 131.4765 327° Northwest 271 312 16,400 -1,380 Descending Aus ATC (RADAR)
07:05AM -12.9650 131.4434 322° Northwest 270 311 15,500 -1,440 Descending Aus ATC (RADAR)
07:07AM -12.8763 131.3761 324° Northwest 267 307 13,400 -1,500 Descending Aus ATC (RADAR)
07:08AM -12.8268 131.3362 322° Northwest 263 303 12,200 -1,500 Descending Aus ATC (RADAR)
07:08AM -12.7747 131.2961 323° Northwest 268 308 10,900 -1,440 Descending Aus ATC (RADAR)
07:09AM -12.7387 131.2690 324° Northwest 265 305 10,200 -1,440 Descending Aus ATC (RADAR)
07:10AM -12.6881 131.2292 323° Northwest 262 302 8,900 -1,620 Descending Aus ATC (RADAR)
07:10AM -12.6731 131.2171 322° Northwest 263 303 8,500 -1,620 Descending Aus ATC (RADAR)
07:11AM -12.6382 131.1903 323° Northwest 258 297 7,600 -1,620 Descending Aus ATC (RADAR)
07:12AM -12.5790 131.1449 323° Northwest 254 292 6,000 -1,620 Descending Aus ATC (RADAR)
07:12AM -12.5649 131.1332 321° Northwest 252 290 5,600 -1,680 Descending Aus ATC (RADAR)
07:12AM -12.5341 131.1043 317° Northwest 246 283 4,600 -1,680 Descending Aus ATC (RADAR)
07:13AM -12.4918 131.0648 318° Northwest 235 270 3,300 -1,680 Descending Aus ATC (RADAR)
07:14AM -12.4658 131.0364 313° West 222 255 2,300 -840 Descending Aus ATC (RADAR)
07:15AM -12.4501 130.9886 289° West 177 204 2,100 -360 Descending Aus ATC (RADAR)
07:15AM -12.4476 130.9784 284° West 159 183 1,900 -900 Descending Aus ATC (RADAR)
07:16AM -12.4383 130.9513 289° West 148 170 1,300 -840 Descending Aus ATC (RADAR)
07:17AM -12.4274 130.9187 289° West 116 133 600 -780 Descending Aus ATC (RADAR)
07:17AM -12.4250 130.9110 288° West 113 130 400 -600 Descending Aus ATC (RADAR)
07:17AM -12.4192 130.8944 290° West 103 119 100 -540 Descending Aus ATC (RADAR)
07:20AM -12.4146 130.8768 316° Northwest  Level FlightAware Approximate
07:27AM -12.4147 130.8767 316° Northwest  Level Estimated
07:28AM -12.4146 130.8768 316° Northwest  Level FlightAware Approximate
07:29AM -12.4147 130.8767 316° Northwest  Level Estimated
07:30AM -12.4146 130.8768 316° Northwest  Level FlightAware Approximate
07:31AM -12.4147 130.8767 316° Northwest  Level Estimated
07:32AM -12.4146 130.8768 316° Northwest  Level FlightAware Approximate
07:33AM -12.4147 130.8767 316° Northwest  Level Estimated
07:34AM -12.4146 130.8768 316° Northwest  Level FlightAware Approximate
07:35AM -12.4147 130.8767 316° Northwest  Level Estimated
07:36AM -12.4146 130.8768 316° Northwest  Level FlightAware Approximate
07:37AM -12.4147 130.8767 316° Northwest  Level Estimated
07:38AM -12.4146 130.8768 316° Northwest  Level FlightAware Approximate
07:39AM -12.4147 130.8767 316° Northwest  Level Estimated